Time;durP1;ratioP1;P1;durP2;ratioP2;P2;SDS_P1;SDS_P2;PMS_P1;PMS_P2;Temp;Humidity;BMP_temperature;BMP_pressure;BME280_temperature;BME280_humidity;BME280_pressure;Samples;Min_cycle;Max_cycle;Signal;HPM_P1;HPM_P2
2024/03/30 00:02:25;;;;;;;1.90;1.00;;;13.10;99.90;;;;;;5010399;28;20181;-75
2024/03/30 00:04:51;;;;;;;1.92;1.10;;;13.00;99.90;;;;;;4952705;29;20195;-74
2024/03/30 00:07:16;;;;;;;2.93;1.43;;;13.00;99.90;;;;;;4934718;29;20176;-75
2024/03/30 00:09:42;;;;;;;2.40;1.67;;;13.00;99.90;;;;;;4950639;28;20262;-75
2024/03/30 00:12:09;;;;;;;3.10;1.60;;;13.00;99.90;;;;;;4952047;28;20180;-74
2024/03/30 00:14:34;;;;;;;2.45;1.38;;;13.10;99.90;;;;;;4950946;29;20599;-75
2024/03/30 00:17:00;;;;;;;2.50;1.43;;;13.00;99.90;;;;;;4950908;29;20208;-75
2024/03/30 00:19:26;;;;;;;2.60;1.70;;;13.10;99.90;;;;;;4951955;28;20200;-75
2024/03/30 00:21:52;;;;;;;2.80;1.92;;;13.10;99.90;;;;;;4934720;28;20366;-75
2024/03/30 00:24:18;;;;;;;2.40;2.07;;;13.10;99.90;;;;;;4952404;29;20272;-77
2024/03/30 00:26:50;;;;;;;2.83;1.70;;;13.10;99.90;;;;;;4952512;28;20272;-77
2024/03/30 00:29:16;;;;;;;4.57;2.05;;;13.10;99.90;;;;;;4988832;28;20208;-77
2024/03/30 00:31:42;;;;;;;2.80;2.13;;;13.00;99.90;;;;;;5012180;28;20238;-77
2024/03/30 00:34:08;;;;;;;3.17;2.20;;;13.00;99.90;;;;;;5053203;28;20177;-77
2024/03/30 00:36:33;;;;;;;2.03;1.60;;;13.00;99.90;;;;;;4963939;28;20679;-77
2024/03/30 00:39:04;;;;;;;3.37;2.83;;;13.00;99.90;;;;;;4953514;29;20576;-77
2024/03/30 00:41:30;;;;;;;5.30;2.97;;;13.00;99.90;;;;;;4953410;28;20204;-77
2024/03/30 00:43:56;;;;;;;3.50;2.67;;;12.90;99.90;;;;;;4952994;28;20184;-77
2024/03/30 00:46:21;;;;;;;3.10;2.67;;;12.90;99.90;;;;;;4951456;29;20586;-77
2024/03/30 00:48:47;;;;;;;4.40;3.00;;;12.90;99.90;;;;;;4954037;28;20596;-77
2024/03/30 00:51:13;;;;;;;4.40;3.40;;;12.80;99.90;;;;;;4954375;28;20251;-77
2024/03/30 00:53:38;;;;;;;5.20;3.30;;;12.80;99.90;;;;;;4955962;28;20651;-76
2024/03/30 00:56:04;;;;;;;4.07;3.67;;;12.70;99.90;;;;;;4964393;28;20677;-77
2024/03/30 00:58:30;;;;;;;4.95;3.97;;;12.70;99.90;;;;;;4968062;28;20194;-77
2024/03/30 01:00:56;;;;;;;4.57;3.53;;;12.70;99.90;;;;;;5036440;28;20213;-76
2024/03/30 01:03:21;;;;;;;5.60;4.07;;;12.60;99.90;;;;;;5030637;28;20187;-77
2024/03/30 01:05:47;;;;;;;4.17;3.77;;;12.60;99.90;;;;;;4968890;28;20633;-77
2024/03/30 01:08:13;;;;;;;4.20;3.70;;;12.50;99.90;;;;;;4965477;29;20173;-77
2024/03/30 01:10:42;;;;;;;5.40;4.30;;;12.50;99.90;;;;;;4949429;28;20200;-77
2024/03/30 01:13:08;;;;;;;4.20;3.47;;;12.50;99.90;;;;;;4964579;28;20227;-77
2024/03/30 01:15:34;;;;;;;5.50;4.20;;;12.40;99.90;;;;;;4964433;28;20711;-76
2024/03/30 01:18:00;;;;;;;4.00;3.08;;;12.40;99.90;;;;;;4967280;28;20188;-77
2024/03/30 01:20:26;;;;;;;5.38;4.32;;;12.30;99.90;;;;;;4964252;28;20219;-77
2024/03/30 01:22:52;;;;;;;6.00;3.85;;;12.30;99.90;;;;;;4966736;28;20178;-77
2024/03/30 01:25:18;;;;;;;3.77;3.47;;;12.30;99.90;;;;;;4965389;28;20175;-77
2024/03/30 01:27:44;;;;;;;6.67;5.60;;;12.30;99.90;;;;;;4965130;28;20177;-77
2024/03/30 01:30:10;;;;;;;4.93;3.37;;;12.30;99.90;;;;;;4964901;28;20777;-77
2024/03/30 01:32:36;;;;;;;4.53;3.20;;;12.20;99.90;;;;;;4969189;28;20603;-77
2024/03/30 01:35:03;;;;;;;3.75;3.20;;;12.20;99.90;;;;;;5042999;28;20236;-77
2024/03/30 01:37:29;;;;;;;4.47;3.03;;;12.20;99.90;;;;;;4964056;28;20234;-77
2024/03/30 01:39:57;;;;;;;5.37;3.47;;;12.20;99.90;;;;;;4965175;28;20196;-77
2024/03/30 01:42:30;;;;;;;4.00;2.40;;;12.20;99.90;;;;;;4961509;28;20645;-77
2024/03/30 01:44:56;;;;;;;3.97;2.30;;;12.20;99.90;;;;;;4964393;28;20226;-76
2024/03/30 01:47:27;;;;;;;4.63;3.20;;;12.20;99.90;;;;;;4963058;28;20242;-77
2024/03/30 01:49:54;;;;;;;3.08;2.25;;;12.20;99.90;;;;;;4961567;28;20236;-76
2024/03/30 01:52:24;;;;;;;3.53;2.90;;;12.20;99.90;;;;;;4964367;29;20191;-77
2024/03/30 01:54:53;;;;;;;2.50;1.80;;;12.20;99.90;;;;;;4970172;28;20188;-77
2024/03/30 01:57:21;;;;;;;2.95;2.60;;;12.20;99.90;;;;;;4966140;28;20197;-76
2024/03/30 01:59:48;;;;;;;3.13;2.30;;;12.20;99.90;;;;;;4961243;28;20204;-76
2024/03/30 02:02:13;;;;;;;2.78;2.08;;;12.20;99.90;;;;;;4958319;28;20176;-76
2024/03/30 02:04:41;;;;;;;2.73;2.00;;;12.10;99.90;;;;;;5013203;28;20168;-76
2024/03/30 02:07:08;;;;;;;3.80;2.08;;;12.10;99.90;;;;;;5001883;28;20619;-77
2024/03/30 02:09:35;;;;;;;2.55;2.05;;;12.10;99.90;;;;;;4965887;28;20176;-76
2024/03/30 02:12:01;;;;;;;2.92;2.63;;;12.20;99.90;;;;;;4960345;28;20199;-76
2024/03/30 02:14:27;;;;;;;5.40;2.70;;;12.10;99.90;;;;;;4944476;29;20646;-77
2024/03/30 02:16:52;;;;;;;4.03;2.77;;;12.10;99.90;;;;;;4960612;28;20695;-76
2024/03/30 02:19:19;;;;;;;3.27;2.70;;;12.10;99.90;;;;;;4963194;28;20181;-76
2024/03/30 02:21:45;;;;;;;4.32;3.00;;;12.10;99.90;;;;;;4959149;28;20187;-78
2024/03/30 02:24:11;;;;;;;3.20;2.90;;;12.10;99.90;;;;;;4963450;28;20185;-76
2024/03/30 02:26:37;;;;;;;4.30;3.60;;;12.10;99.90;;;;;;4962558;28;20199;-76
2024/03/30 02:29:05;;;;;;;5.23;4.00;;;12.00;99.90;;;;;;4946976;29;20198;-76
2024/03/30 02:31:32;;;;;;;4.45;4.05;;;12.00;99.90;;;;;;4963556;28;20287;-77
2024/03/30 02:33:59;;;;;;;4.53;3.17;;;12.00;99.90;;;;;;4964239;28;20181;-77
2024/03/30 02:36:26;;;;;;;4.30;3.88;;;12.00;99.90;;;;;;4997342;28;20255;-76
2024/03/30 02:38:53;;;;;;;3.88;3.47;;;12.00;99.90;;;;;;5004319;28;20538;-76
2024/03/30 02:41:18;;;;;;;4.63;3.92;;;12.00;99.90;;;;;;4958081;28;20544;-76
2024/03/30 02:43:44;;;;;;;3.70;3.30;;;12.00;99.90;;;;;;4953992;28;20214;-76
2024/03/30 02:46:10;;;;;;;6.60;5.00;;;12.00;99.90;;;;;;4950939;28;20211;-76
2024/03/30 02:48:37;;;;;;;4.30;3.90;;;12.00;99.90;;;;;;4952322;28;20231;-76
2024/03/30 02:51:03;;;;;;;6.30;5.53;;;12.00;99.90;;;;;;4954196;28;20262;-76
2024/03/30 02:53:29;;;;;;;5.17;4.67;;;12.00;99.90;;;;;;4955933;28;20181;-77
2024/03/30 02:55:54;;;;;;;4.53;4.10;;;11.90;99.90;;;;;;4952336;28;20211;-77
2024/03/30 02:58:23;;;;;;;5.83;5.20;;;11.90;99.90;;;;;;4950620;29;20181;-77
2024/03/30 03:00:49;;;;;;;5.53;4.43;;;11.90;99.90;;;;;;4949971;28;20193;-78
2024/03/30 03:03:15;;;;;;;4.97;4.45;;;11.90;99.90;;;;;;4955430;28;20536;-77
2024/03/30 03:05:41;;;;;;;5.67;5.17;;;12.00;99.90;;;;;;4956686;28;20185;-77
2024/03/30 03:08:06;;;;;;;5.60;5.10;;;11.90;99.90;;;;;;4948979;28;20852;-78
2024/03/30 03:10:32;;;;;;;5.20;4.77;;;11.90;99.90;;;;;;4950045;28;20593;-78
2024/03/30 03:12:58;;;;;;;4.63;4.23;;;11.80;99.90;;;;;;4953052;28;20200;-76
2024/03/30 03:15:23;;;;;;;4.70;4.30;;;11.80;99.90;;;;;;4962056;29;20626;-76
2024/03/30 03:17:49;;;;;;;4.30;3.77;;;11.90;99.90;;;;;;4961598;28;20622;-77
2024/03/30 03:20:15;;;;;;;5.67;5.17;;;11.90;99.90;;;;;;4949682;28;20249;-77
2024/03/30 03:22:41;;;;;;;4.77;4.37;;;11.80;99.90;;;;;;4951201;28;20648;-76
2024/03/30 03:25:06;;;;;;;4.40;4.00;;;11.80;99.90;;;;;;4952560;28;20531;-77
2024/03/30 03:27:32;;;;;;;5.77;3.97;;;11.80;99.90;;;;;;4950868;29;20184;-76
2024/03/30 03:29:58;;;;;;;4.67;3.70;;;11.70;99.90;;;;;;4950886;28;20215;-76
2024/03/30 03:32:23;;;;;;;4.50;4.10;;;11.80;99.90;;;;;;4950320;28;20188;-77
2024/03/30 03:34:49;;;;;;;4.33;3.93;;;11.80;99.90;;;;;;4948957;28;20592;-76
2024/03/30 03:37:15;;;;;;;5.90;5.30;;;11.80;99.90;;;;;;5020567;28;20316;-76
2024/03/30 03:39:40;;;;;;;5.40;3.90;;;11.70;99.90;;;;;;4965059;28;20208;-76
2024/03/30 03:42:06;;;;;;;6.37;4.70;;;11.70;99.90;;;;;;4952053;28;20184;-76
2024/03/30 03:44:32;;;;;;;6.13;5.53;;;11.60;99.90;;;;;;4934731;29;20180;-76
2024/03/30 03:46:58;;;;;;;4.33;3.97;;;11.70;99.90;;;;;;4951521;28;20188;-77
2024/03/30 03:49:24;;;;;;;5.40;4.90;;;11.60;99.90;;;;;;4951596;28;20191;-76
2024/03/30 03:51:50;;;;;;;4.43;4.03;;;11.60;99.90;;;;;;4951677;28;20278;-76
2024/03/30 03:54:16;;;;;;;6.05;4.88;;;11.60;99.90;;;;;;4950547;28;20184;-76
2024/03/30 03:56:42;;;;;;;5.90;5.33;;;11.60;99.90;;;;;;4935609;28;20285;-77
2024/03/30 03:59:07;;;;;;;5.13;4.63;;;11.60;99.90;;;;;;4953876;28;20215;-76
2024/03/30 04:01:33;;;;;;;5.57;4.47;;;11.60;99.90;;;;;;4992294;28;20197;-76
2024/03/30 04:03:59;;;;;;;5.23;4.57;;;11.70;99.90;;;;;;4996089;28;20267;-76
2024/03/30 04:06:24;;;;;;;5.50;4.93;;;11.60;99.90;;;;;;4952505;28;20242;-76
2024/03/30 04:08:51;;;;;;;5.00;4.43;;;11.70;99.90;;;;;;5043940;28;20188;-76
2024/03/30 04:11:16;;;;;;;4.82;4.40;;;11.70;99.90;;;;;;4980956;28;21045;-76
2024/03/30 04:13:42;;;;;;;6.50;5.13;;;11.60;99.90;;;;;;4950388;28;20220;-76
2024/03/30 04:16:08;;;;;;;5.00;4.47;;;11.60;99.90;;;;;;4949996;29;20235;-77
2024/03/30 04:18:33;;;;;;;4.20;3.80;;;11.60;99.90;;;;;;4950526;29;20241;-76
2024/03/30 04:21:01;;;;;;;4.33;3.87;;;11.70;99.90;;;;;;4950031;28;21134;-76
2024/03/30 04:23:31;;;;;;;5.65;5.15;;;11.70;99.90;;;;;;4951558;28;20184;-76
2024/03/30 04:26:00;;;;;;;4.70;4.13;;;11.70;99.90;;;;;;4950285;28;20240;-76
2024/03/30 04:28:26;;;;;;;5.90;5.32;;;11.70;99.90;;;;;;4950917;28;20180;-76
2024/03/30 04:30:58;;;;;;;5.10;4.10;;;11.70;99.90;;;;;;4951740;28;20720;-76
2024/03/30 04:33:24;;;;;;;5.97;5.38;;;11.60;99.90;;;;;;4950785;28;20184;-76
2024/03/30 04:35:57;;;;;;;5.83;4.67;;;11.60;99.90;;;;;;4945874;28;20598;-76
2024/03/30 04:38:23;;;;;;;4.85;4.22;;;11.70;99.90;;;;;;5024854;28;20660;-76
2024/03/30 04:41:06;;;;;;;5.55;4.72;;;11.60;99.90;;;;;;5002125;28;20200;-76
2024/03/30 04:43:33;;;;;;;5.90;4.68;;;11.60;99.90;;;;;;4951141;28;20191;-76
2024/03/30 04:45:59;;;;;;;4.38;3.92;;;11.70;99.90;;;;;;4949507;28;20213;-76
2024/03/30 04:48:27;;;;;;;4.65;3.92;;;11.70;99.90;;;;;;4949876;28;20191;-76
2024/03/30 04:50:54;;;;;;;6.30;5.47;;;11.70;99.90;;;;;;4949449;28;20235;-76
2024/03/30 04:53:23;;;;;;;5.43;4.93;;;11.70;99.90;;;;;;4950960;28;20199;-76
2024/03/30 04:56:10;;;;;;;5.30;4.55;;;11.70;99.90;;;;;;4949358;28;20369;-76
2024/03/30 04:58:37;;;;;;;5.10;4.15;;;11.70;99.90;;;;;;4950987;28;20184;-77
2024/03/30 05:01:06;;;;;;;5.10;4.60;;;11.70;99.90;;;;;;4950551;28;20203;-76
2024/03/30 05:03:32;;;;;;;5.32;4.55;;;11.70;99.90;;;;;;4949548;29;20265;-76
2024/03/30 05:05:58;;;;;;;5.18;4.68;;;11.70;99.90;;;;;;4950417;28;20204;-77
2024/03/30 05:08:24;;;;;;;5.57;4.97;;;11.70;99.90;;;;;;4947557;28;20173;-77
2024/03/30 05:10:52;;;;;;;8.63;6.00;;;11.70;99.90;;;;;;4955788;28;21207;-77
2024/03/30 05:13:18;;;;;;;7.15;6.00;;;11.70;99.90;;;;;;5024582;28;20592;-77
2024/03/30 05:15:44;;;;;;;5.70;4.88;;;11.70;99.90;;;;;;4948945;28;20863;-77
2024/03/30 05:18:12;;;;;;;5.47;4.60;;;11.70;99.90;;;;;;4949212;28;20697;-77
2024/03/30 05:20:53;;;;;;;6.20;5.03;;;11.70;99.90;;;;;;4950523;28;20196;-77
2024/03/30 05:23:24;;;;;;;6.80;5.68;;;11.70;99.90;;;;;;4949123;28;20181;-77
2024/03/30 05:25:51;;;;;;;6.47;4.93;;;11.70;99.90;;;;;;4949982;28;20188;-77
2024/03/30 05:28:19;;;;;;;5.40;4.75;;;11.70;99.90;;;;;;4950424;28;20710;-77
2024/03/30 05:30:48;;;;;;;6.95;4.85;;;11.70;99.90;;;;;;4949130;28;20580;-77
2024/03/30 05:33:14;;;;;;;7.38;4.53;;;11.70;99.90;;;;;;4950305;28;20180;-77
2024/03/30 05:35:40;;;;;;;5.30;3.95;;;11.70;99.90;;;;;;4949769;28;20211;-77
2024/03/30 05:38:06;;;;;;;5.33;4.53;;;11.70;99.90;;;;;;4948440;28;20700;-77
2024/03/30 05:40:34;;;;;;;4.93;4.40;;;11.80;99.90;;;;;;4947052;28;20215;-77
2024/03/30 05:43:01;;;;;;;5.70;4.65;;;11.90;99.90;;;;;;5033425;28;20183;-77
2024/03/30 05:45:27;;;;;;;8.30;5.78;;;11.90;99.90;;;;;;4949224;28;20187;-77
2024/03/30 05:47:54;;;;;;;5.75;3.58;;;11.80;99.90;;;;;;4949914;28;20173;-77
2024/03/30 05:50:20;;;;;;;6.60;5.57;;;11.90;99.90;;;;;;4951246;28;20269;-77
2024/03/30 05:52:46;;;;;;;5.40;4.90;;;11.90;99.90;;;;;;4950563;28;20192;-77
2024/03/30 05:55:12;;;;;;;7.93;4.23;;;12.00;99.90;;;;;;4956294;28;20177;-77
2024/03/30 05:57:38;;;;;;;7.97;5.00;;;12.00;99.90;;;;;;4948076;28;20707;-77
2024/03/30 06:00:05;;;;;;;8.23;4.40;;;12.00;99.90;;;;;;4948506;28;20644;-77
2024/03/30 06:02:39;;;;;;;5.65;4.30;;;12.10;99.90;;;;;;5029359;28;20176;-76
2024/03/30 06:05:05;;;;;;;7.25;4.63;;;12.10;99.90;;;;;;4949573;28;20176;-77
2024/03/30 06:07:31;;;;;;;4.13;3.70;;;12.20;99.90;;;;;;4948272;28;20172;-77
2024/03/30 06:09:57;;;;;;;4.20;3.80;;;12.20;99.90;;;;;;4943222;28;20207;-77
2024/03/30 06:12:23;;;;;;;4.60;3.73;;;12.30;99.90;;;;;;5001949;28;20627;-77
2024/03/30 06:14:48;;;;;;;4.70;3.97;;;12.30;99.90;;;;;;4962582;28;20176;-76
2024/03/30 06:17:14;;;;;;;4.47;3.77;;;12.30;99.90;;;;;;4932320;29;20638;-76
2024/03/30 06:19:41;;;;;;;4.67;3.40;;;12.40;99.90;;;;;;4949988;28;20654;-77
2024/03/30 06:22:07;;;;;;;4.30;3.30;;;12.40;99.90;;;;;;4950364;28;20623;-76
2024/03/30 06:24:32;;;;;;;7.43;3.97;;;12.50;99.90;;;;;;4948524;28;20180;-75
2024/03/30 06:26:58;;;;;;;4.70;3.80;;;12.50;99.90;;;;;;4950537;28;20588;-76
2024/03/30 06:29:24;;;;;;;4.53;3.30;;;12.50;99.90;;;;;;4948245;28;20699;-75
2024/03/30 06:31:49;;;;;;;6.60;3.73;;;12.60;99.90;;;;;;4948097;28;20188;-76
2024/03/30 06:34:15;;;;;;;3.53;3.20;;;12.60;99.90;;;;;;4949544;28;20226;-76
2024/03/30 06:36:41;;;;;;;4.00;3.60;;;12.60;99.90;;;;;;4947909;29;20240;-77
2024/03/30 06:39:06;;;;;;;5.03;3.03;;;12.70;99.90;;;;;;4949385;28;20204;-76
2024/03/30 06:44:16;;;;;;;4.95;2.55;;;12.70;99.90;;;;;;4963561;28;20203;-76
2024/03/30 06:46:42;;;;;;;3.53;2.63;;;12.80;99.90;;;;;;5030206;28;20169;-76
2024/03/30 06:49:08;;;;;;;4.50;2.60;;;12.80;99.90;;;;;;4950045;28;20910;-76
2024/03/30 06:51:33;;;;;;;3.40;2.73;;;12.90;99.90;;;;;;4948519;28;20254;-77
2024/03/30 06:53:59;;;;;;;6.60;2.80;;;13.00;99.90;;;;;;4948926;28;20268;-76
2024/03/30 06:56:25;;;;;;;3.20;2.70;;;13.00;99.90;;;;;;4950073;28;20215;-76
2024/03/30 06:58:51;;;;;;;6.40;3.17;;;13.00;99.90;;;;;;4952552;28;20679;-76
2024/03/30 07:01:16;;;;;;;4.23;2.43;;;13.10;99.90;;;;;;4935174;29;20272;-76
2024/03/30 07:03:42;;;;;;;2.60;2.03;;;13.10;99.90;;;;;;4953746;28;20183;-76
2024/03/30 07:06:10;;;;;;;5.70;2.10;;;13.10;99.90;;;;;;4952147;28;20172;-76
2024/03/30 07:08:36;;;;;;;4.75;2.83;;;13.20;99.90;;;;;;4944699;28;20608;-77
2024/03/30 07:11:02;;;;;;;4.60;2.13;;;13.20;99.90;;;;;;5003783;28;20238;-76
2024/03/30 07:13:28;;;;;;;3.17;2.50;;;13.30;99.90;;;;;;4961556;28;20188;-77
2024/03/30 07:15:54;;;;;;;3.40;2.23;;;13.30;99.90;;;;;;4957633;28;20627;-76
2024/03/30 07:18:20;;;;;;;4.67;2.03;;;13.40;99.90;;;;;;5029661;28;20192;-76
2024/03/30 07:20:46;;;;;;;4.43;2.40;;;13.50;99.90;;;;;;4948389;28;20200;-77
2024/03/30 07:23:11;;;;;;;6.97;2.20;;;13.60;99.90;;;;;;4978137;28;20729;-76
2024/03/30 07:25:39;;;;;;;3.60;2.00;;;13.60;99.90;;;;;;4951418;28;20211;-77
2024/03/30 07:28:05;;;;;;;3.22;1.80;;;13.70;99.90;;;;;;5005427;28;20176;-77
2024/03/30 07:30:35;;;;;;;5.30;2.30;;;13.70;99.90;;;;;;5020587;28;20200;-76
2024/03/30 07:33:01;;;;;;;4.67;1.90;;;13.70;99.90;;;;;;4952018;28;20188;-76
2024/03/30 07:35:27;;;;;;;4.67;2.50;;;13.80;99.90;;;;;;4934714;29;20615;-76
2024/03/30 07:37:52;;;;;;;3.57;2.40;;;13.80;99.90;;;;;;4950254;28;20184;-75
2024/03/30 07:40:18;;;;;;;8.80;3.00;;;13.90;99.90;;;;;;4951224;28;20212;-75
2024/03/30 07:42:44;;;;;;;4.40;2.43;;;13.90;99.90;;;;;;4951623;28;20184;-76
2024/03/30 07:45:09;;;;;;;3.00;2.17;;;13.90;99.90;;;;;;4949418;28;20230;-76
2024/03/30 07:47:37;;;;;;;4.30;2.47;;;14.00;99.90;;;;;;4949529;28;20180;-77
2024/03/30 07:50:04;;;;;;;4.07;2.73;;;14.00;99.90;;;;;;4948208;28;20222;-77
2024/03/30 07:52:30;;;;;;;3.70;1.83;;;14.10;99.90;;;;;;4948340;28;21335;-77
2024/03/30 07:54:56;;;;;;;5.13;2.47;;;14.20;99.90;;;;;;4950015;28;20675;-77
2024/03/30 07:57:23;;;;;;;4.43;3.20;;;14.30;99.90;;;;;;4949952;28;20548;-77
2024/03/30 07:59:49;;;;;;;3.43;2.30;;;14.40;99.90;;;;;;4950832;28;20283;-77
2024/03/30 08:02:15;;;;;;;6.10;3.17;;;14.50;99.90;;;;;;4971097;28;20610;-76
2024/03/30 08:04:41;;;;;;;5.00;3.10;;;14.50;99.90;;;;;;4971442;28;20620;-77
2024/03/30 08:07:06;;;;;;;5.20;3.20;;;14.50;99.90;;;;;;4987109;28;20191;-76
2024/03/30 08:09:32;;;;;;;4.97;3.20;;;14.60;99.90;;;;;;4999837;28;20180;-76
2024/03/30 08:11:58;;;;;;;6.47;3.43;;;14.60;99.90;;;;;;5009191;28;20184;-77
2024/03/30 08:14:23;;;;;;;5.30;2.97;;;14.60;99.90;;;;;;4933559;29;20173;-76
2024/03/30 08:16:49;;;;;;;5.97;3.30;;;14.60;99.90;;;;;;4993265;28;20201;-76
2024/03/30 08:19:16;;;;;;;4.17;2.37;;;14.70;99.90;;;;;;4993735;28;20176;-76
2024/03/30 08:21:42;;;;;;;3.93;2.53;;;14.80;99.90;;;;;;4974464;28;20205;-76
2024/03/30 08:24:07;;;;;;;7.30;3.00;;;15.00;99.90;;;;;;5034871;28;20583;-76
2024/03/30 08:26:33;;;;;;;9.33;2.43;;;15.20;99.90;;;;;;4951007;28;20542;-76
2024/03/30 08:28:59;;;;;;;5.90;2.47;;;15.30;99.90;;;;;;4949808;28;20176;-77
2024/03/30 08:31:24;;;;;;;7.60;2.67;;;15.50;99.90;;;;;;4949772;28;20689;-76
2024/03/30 08:33:52;;;;;;;5.40;2.20;;;15.60;99.90;;;;;;4961504;28;20191;-77
2024/03/30 08:36:18;;;;;;;4.67;2.07;;;15.80;99.90;;;;;;5012078;28;20213;-76
2024/03/30 08:38:44;;;;;;;5.73;3.13;;;15.90;99.90;;;;;;4990310;28;20584;-76
2024/03/30 08:41:10;;;;;;;3.53;1.70;;;16.00;99.90;;;;;;5034503;28;20619;-77
2024/03/30 08:43:37;;;;;;;4.53;2.90;;;16.10;99.90;;;;;;4949790;29;20267;-76
2024/03/30 08:46:04;;;;;;;3.30;1.57;;;16.20;99.90;;;;;;4999536;28;20935;-76
2024/03/30 08:48:33;;;;;;;4.67;1.67;;;16.40;99.90;;;;;;4989815;28;20579;-76
2024/03/30 08:51:00;;;;;;;2.67;1.20;;;16.60;99.90;;;;;;5003624;28;21075;-76
2024/03/30 08:53:26;;;;;;;5.33;1.97;;;16.80;99.90;;;;;;4990741;28;20616;-76
2024/03/30 08:55:59;;;;;;;3.70;1.57;;;17.10;99.90;;;;;;4993303;28;20663;-77
2024/03/30 08:58:26;;;;;;;3.63;1.40;;;17.30;99.90;;;;;;4982845;28;20203;-76
2024/03/30 09:00:53;;;;;;;7.57;2.80;;;17.50;99.90;;;;;;4954187;28;20612;-76
2024/03/30 09:03:19;;;;;;;5.00;1.37;;;17.70;99.90;;;;;;4991246;28;21141;-76
2024/03/30 09:05:45;;;;;;;4.63;1.30;;;17.80;99.90;;;;;;5011988;28;20623;-76
2024/03/30 09:08:12;;;;;;;5.43;2.23;;;17.90;99.90;;;;;;4995623;28;20592;-76
2024/03/30 09:10:38;;;;;;;3.53;1.10;;;18.10;99.90;;;;;;4948119;28;20620;-76
2024/03/30 09:13:03;;;;;;;5.73;1.63;;;18.20;99.90;;;;;;4948928;28;20592;-76
2024/03/30 09:15:29;;;;;;;8.57;2.20;;;18.30;99.90;;;;;;4948895;28;20616;-76
2024/03/30 09:17:55;;;;;;;8.73;1.53;;;18.40;99.90;;;;;;4948716;29;20276;-76
2024/03/30 09:20:24;;;;;;;6.07;1.20;;;18.30;99.90;;;;;;5015030;23;20271;-79
2024/03/30 09:22:49;;;;;;;8.50;2.77;;;18.40;99.90;;;;;;5059075;28;20587;-79
2024/03/30 09:25:15;;;;;;;8.87;1.27;;;18.30;99.90;;;;;;5050339;28;20579;-79
2024/03/30 09:27:41;;;;;;;10.17;1.37;;;18.20;99.90;;;;;;5069227;28;20657;-80
2024/03/30 09:30:10;;;;;;;8.17;1.47;;;18.10;99.90;;;;;;5049930;28;20233;-80
2024/03/30 09:32:38;;;;;;;11.47;2.13;;;18.00;99.90;;;;;;5032591;28;20588;-80
2024/03/30 09:35:08;;;;;;;4.03;1.20;;;18.00;99.90;;;;;;5031705;28;20691;-79
2024/03/30 09:37:35;;;;;;;10.47;2.10;;;17.90;99.90;;;;;;5032580;28;20648;-81
2024/03/30 09:40:01;;;;;;;5.10;1.53;;;18.00;99.90;;;;;;5032554;28;20624;-80
2024/03/30 09:42:37;;;;;;;8.70;1.70;;;18.00;99.90;;;;;;5033438;28;20586;-79
2024/03/30 09:45:05;;;;;;;7.33;1.37;;;18.10;99.90;;;;;;5032498;28;20657;-78
2024/03/30 09:47:39;;;;;;;7.00;1.80;;;18.20;99.90;;;;;;5015699;28;20719;-79
2024/03/30 09:50:08;;;;;;;5.30;1.40;;;18.40;99.90;;;;;;5043379;28;20666;-79
2024/03/30 09:52:36;;;;;;;6.00;1.40;;;18.60;99.90;;;;;;5041026;28;20643;-78
2024/03/30 09:55:08;;;;;;;7.80;1.90;;;18.80;99.90;;;;;;5020547;28;20588;-78
2024/03/30 09:57:35;;;;;;;8.73;1.63;;;18.90;99.90;;;;;;5032289;28;21187;-78
2024/03/30 10:00:03;;;;;;;9.80;1.97;;;19.10;99.90;;;;;;5028780;28;20687;-78
2024/03/30 10:02:38;;;;;;;16.70;2.10;;;19.20;99.90;;;;;;5035687;28;20580;-79
2024/03/30 10:05:06;;;;;;;14.20;3.17;;;19.40;99.90;;;;;;5030156;28;20658;-79
2024/03/30 10:07:57;;;;;;;7.23;2.07;;;19.50;99.90;;;;;;5030808;28;20688;-79
2024/03/30 10:10:24;;;;;;;10.57;1.90;;;19.60;99.90;;;;;;5023340;28;20616;-79
2024/03/30 10:12:55;;;;;;;11.07;3.27;;;19.80;99.90;;;;;;5029615;28;21224;-79
2024/03/30 10:15:33;;;;;;;18.10;2.07;;;20.00;99.90;;;;;;5039491;28;21040;-80
2024/03/30 10:17:58;;;;;;;11.70;2.33;;;20.00;99.90;;;;;;5030122;28;20592;-80
2024/03/30 10:20:25;;;;;;;12.40;2.70;;;20.10;99.90;;;;;;5030141;28;20635;-80
2024/03/30 10:22:50;;;;;;;12.50;2.90;;;20.20;99.90;;;;;;5033127;28;20580;-80
2024/03/30 10:25:18;;;;;;;8.90;1.60;;;20.20;99.90;;;;;;5035798;28;21145;-80
2024/03/30 10:27:45;;;;;;;8.43;2.90;;;20.10;99.90;;;;;;5017797;28;20169;-80
2024/03/30 10:30:11;;;;;;;12.50;2.30;;;20.00;99.90;;;;;;5031932;28;21220;-80
2024/03/30 10:32:40;;;;;;;10.63;1.83;;;20.00;99.90;;;;;;5036401;28;20739;-80
2024/03/30 10:35:13;;;;;;;12.83;4.70;;;20.00;99.90;;;;;;5036175;28;20957;-80
2024/03/30 10:37:39;;;;;;;10.30;2.50;;;19.90;99.90;;;;;;5034099;28;20643;-80
2024/03/30 10:40:06;;;;;;;12.53;3.00;;;19.90;99.90;;;;;;5019218;28;20999;-80
2024/03/30 10:42:31;;;;;;;9.13;2.03;;;19.90;99.90;;;;;;5046698;28;20177;-80
2024/03/30 10:44:58;;;;;;;9.30;2.37;;;19.80;99.90;;;;;;5043124;28;21189;-81
2024/03/30 10:47:24;;;;;;;9.53;1.77;;;19.70;99.90;;;;;;5025656;28;20235;-80
2024/03/30 10:49:50;;;;;;;17.00;2.30;;;19.70;99.90;;;;;;5035008;28;21032;-80
2024/03/30 10:52:16;;;;;;;8.10;2.20;;;19.70;99.90;;;;;;5033406;28;20232;-78
2024/03/30 10:54:43;;;;;;;10.50;2.40;;;19.60;99.90;;;;;;5034522;28;20655;-80
2024/03/30 10:57:08;;;;;;;14.93;2.70;;;19.60;99.90;;;;;;5034117;28;20690;-80
2024/03/30 10:59:40;;;;;;;12.37;2.37;;;19.60;99.90;;;;;;5034492;28;20691;-80
2024/03/30 11:02:17;;;;;;;11.67;2.07;;;19.60;99.90;;;;;;5009185;28;20182;-80
2024/03/30 11:04:44;;;;;;;11.10;2.10;;;19.70;99.90;;;;;;5030737;28;20584;-80
2024/03/30 11:07:14;;;;;;;18.30;3.33;;;19.70;99.90;;;;;;5035572;28;21238;-80
2024/03/30 11:09:42;;;;;;;12.77;3.23;;;19.70;99.90;;;;;;5039879;28;20612;-80
2024/03/30 11:12:11;;;;;;;20.30;3.70;;;19.70;99.90;;;;;;5034297;28;20591;-80
2024/03/30 11:14:38;;;;;;;14.30;2.90;;;19.70;99.90;;;;;;5016528;28;20588;-80
2024/03/30 11:17:21;;;;;;;14.33;3.10;;;19.70;99.90;;;;;;5042137;28;20793;-80
2024/03/30 11:20:00;;;;;;;15.87;2.87;;;19.60;99.90;;;;;;5033960;28;21066;-80
2024/03/30 11:22:35;;;;;;;16.33;3.13;;;19.70;99.90;;;;;;5036131;28;20568;-80
2024/03/30 11:25:06;;;;;;;22.53;3.20;;;19.70;99.90;;;;;;5033798;28;20584;-80
2024/03/30 11:27:33;;;;;;;14.83;2.67;;;19.70;99.90;;;;;;5032451;28;20944;-80
2024/03/30 11:30:07;;;;;;;16.73;3.47;;;19.70;99.90;;;;;;5049729;28;20623;-79
2024/03/30 11:32:38;;;;;;;17.70;4.00;;;19.80;99.90;;;;;;5045286;28;20596;-80
2024/03/30 11:35:15;;;;;;;18.13;3.27;;;19.90;99.90;;;;;;5033672;28;20584;-79
2024/03/30 11:37:43;;;;;;;22.40;4.40;;;19.90;99.90;;;;;;5033240;28;20987;-77
2024/03/30 11:40:17;;;;;;;24.43;4.53;;;20.00;99.90;;;;;;5031662;28;20634;-77
2024/03/30 11:43:01;;;;;;;18.70;4.53;;;20.00;99.90;;;;;;5032095;28;20945;-78
2024/03/30 11:45:31;;;;;;;18.13;4.00;;;20.10;99.90;;;;;;5032368;28;20670;-78
2024/03/30 11:47:57;;;;;;;29.97;5.03;;;20.10;99.90;;;;;;5033328;28;20584;-78
2024/03/30 11:50:24;;;;;;;29.33;4.77;;;20.10;99.90;;;;;;5032716;28;20663;-78
2024/03/30 11:52:50;;;;;;;26.70;4.47;;;20.10;99.90;;;;;;5034203;28;20584;-78
2024/03/30 11:55:33;;;;;;;28.07;4.70;;;20.10;99.90;;;;;;5042589;28;21175;-78
2024/03/30 11:58:00;;;;;;;17.17;6.30;;;20.20;99.90;;;;;;5024796;28;20588;-79
2024/03/30 12:00:29;;;;;;;32.20;4.50;;;20.20;99.90;;;;;;5038392;28;20691;-79
2024/03/30 12:03:04;;;;;;;22.37;3.93;;;20.20;99.90;;;;;;5017544;28;20581;-79
2024/03/30 12:05:30;;;;;;;20.63;4.37;;;20.10;99.90;;;;;;5031444;28;20603;-79
2024/03/30 12:07:57;;;;;;;23.77;5.07;;;20.10;99.90;;;;;;5032377;28;20612;-79
2024/03/30 12:10:23;;;;;;;27.60;6.27;;;20.10;99.90;;;;;;5033464;28;20256;-78
2024/03/30 12:12:59;;;;;;;17.60;3.63;;;20.00;99.90;;;;;;5056796;28;20586;-79
2024/03/30 12:15:28;;;;;;;18.30;4.10;;;20.00;99.90;;;;;;5033354;28;20608;-79
2024/03/30 12:17:55;;;;;;;29.07;3.90;;;20.00;99.90;;;;;;5032744;28;20690;-79
2024/03/30 12:20:21;;;;;;;26.50;4.33;;;20.00;99.90;;;;;;5033092;28;20680;-79
2024/03/30 12:22:46;;;;;;;19.57;4.23;;;20.00;99.90;;;;;;5033113;28;20981;-79
2024/03/30 12:25:15;;;;;;;23.70;4.53;;;20.00;99.90;;;;;;5032815;28;20679;-79
2024/03/30 12:27:44;;;;;;;20.40;4.40;;;19.90;99.90;;;;;;5032855;28;20580;-79
2024/03/30 12:30:11;;;;;;;19.20;3.93;;;20.00;99.90;;;;;;5032790;28;20643;-79
2024/03/30 12:32:36;;;;;;;24.03;3.67;;;19.90;99.90;;;;;;5029712;28;20593;-79
2024/03/30 12:35:03;;;;;;;14.20;2.60;;;19.90;99.90;;;;;;5032328;28;20593;-79
2024/03/30 12:37:29;;;;;;;20.80;4.30;;;20.00;99.90;;;;;;5030979;28;20668;-78
2024/03/30 12:39:55;;;;;;;20.20;3.83;;;20.00;99.90;;;;;;5032358;28;21217;-79
2024/03/30 12:42:21;;;;;;;13.40;2.80;;;20.00;99.90;;;;;;5032435;28;20177;-79
2024/03/30 12:44:53;;;;;;;12.53;2.63;;;20.00;99.90;;;;;;5032274;28;20596;-78
2024/03/30 12:47:19;;;;;;;21.80;3.20;;;20.10;99.90;;;;;;5032184;28;20584;-79
2024/03/30 12:49:45;;;;;;;25.00;4.20;;;20.10;99.90;;;;;;5047747;28;20623;-79